Time;durP1;ratioP1;P1;durP2;ratioP2;P2;SDS_P1;SDS_P2;PMS_P1;PMS_P2;Temp;Humidity;BMP_temperature;BMP_pressure;BME280_temperature;BME280_humidity;BME280_pressure;Samples;Min_cycle;Max_cycle;Signal;HPM_P1;HPM_P2
2022/07/18 00:01:32;;;;;;;11.73;8.73;;;13.90;1.00;;;;;;5054820;28;20111;-25
2022/07/18 00:03:59;;;;;;;12.00;8.90;;;13.90;1.00;;;;;;5055019;28;20095;-25
2022/07/18 00:06:25;;;;;;;12.15;8.88;;;13.90;1.00;;;;;;5055231;28;20049;-26
2022/07/18 00:08:51;;;;;;;10.93;9.40;;;13.90;1.00;;;;;;5055983;28;20099;-26
2022/07/18 00:11:17;;;;;;;11.43;8.57;;;14.00;1.00;;;;;;5054206;28;20456;-25
2022/07/18 00:13:42;;;;;;;13.60;9.45;;;14.00;1.00;;;;;;5054217;28;20136;-25
2022/07/18 00:16:08;;;;;;;11.55;9.73;;;14.00;1.00;;;;;;5054542;28;20044;-25
2022/07/18 00:18:34;;;;;;;13.27;9.88;;;14.00;1.00;;;;;;5057824;28;20045;-25
2022/07/18 00:21:00;;;;;;;13.25;10.00;;;14.10;28.10;;;;;;5054130;28;20522;-28
2022/07/18 00:23:25;;;;;;;13.48;10.55;;;14.10;81.30;;;;;;5054201;28;20082;-25
2022/07/18 00:25:51;;;;;;;13.10;10.05;;;14.10;99.90;;;;;;5054566;28;20041;-25
2022/07/18 00:28:17;;;;;;;12.88;9.68;;;14.10;99.90;;;;;;5056328;28;20052;-25
2022/07/18 00:30:42;;;;;;;16.55;11.02;;;14.20;99.90;;;;;;5054901;28;20090;-25
2022/07/18 00:33:08;;;;;;;13.95;9.82;;;14.20;99.90;;;;;;5054335;28;20049;-25
2022/07/18 00:35:35;;;;;;;10.88;8.70;;;14.20;99.90;;;;;;5054147;28;20120;-25
2022/07/18 00:38:03;;;;;;;11.52;8.27;;;14.20;99.90;;;;;;5052943;28;20483;-25
2022/07/18 00:40:31;;;;;;;13.45;8.52;;;14.20;99.90;;;;;;5054053;28;20110;-25
2022/07/18 00:42:57;;;;;;;11.88;9.57;;;14.20;99.90;;;;;;5054624;28;20141;-25
2022/07/18 00:45:23;;;;;;;11.60;8.68;;;14.30;99.90;;;;;;5052729;28;20096;-25
2022/07/18 00:47:51;;;;;;;13.05;9.15;;;14.30;99.90;;;;;;5054452;28;20045;-25
2022/07/18 00:50:18;;;;;;;11.38;8.43;;;14.30;99.90;;;;;;5052926;28;20064;-25
2022/07/18 00:52:44;;;;;;;10.90;8.40;;;14.20;99.90;;;;;;5053258;28;20052;-25
2022/07/18 00:55:09;;;;;;;10.05;8.27;;;14.20;99.90;;;;;;5057374;28;20052;-25
2022/07/18 00:57:37;;;;;;;11.73;8.70;;;14.20;99.90;;;;;;5052963;28;20069;-25
2022/07/18 01:02:50;;;;;;;11.48;9.52;;;14.30;99.90;;;;;;5074904;28;20068;-25
2022/07/18 01:05:15;;;;;;;12.90;9.65;;;14.30;99.90;;;;;;5062523;28;20049;-25
2022/07/18 01:07:41;;;;;;;12.60;9.75;;;14.30;99.90;;;;;;5054168;28;20049;-25
2022/07/18 01:10:07;;;;;;;10.98;9.63;;;14.40;99.90;;;;;;5056928;28;20055;-25
2022/07/18 01:12:33;;;;;;;11.55;9.48;;;14.40;99.90;;;;;;5054579;28;20106;-25
2022/07/18 01:14:59;;;;;;;11.40;8.70;;;14.40;1.00;;;;;;5052113;28;20041;-25
2022/07/18 01:17:25;;;;;;;12.13;8.25;;;14.40;1.00;;;;;;5053871;28;20037;-25
2022/07/18 01:19:50;;;;;;;12.77;8.43;;;14.30;1.00;;;;;;5065964;28;20053;-25
2022/07/18 01:22:19;;;;;;;9.25;7.65;;;14.30;1.00;;;;;;5072795;28;20406;-25
2022/07/18 01:24:44;;;;;;;10.70;8.02;;;14.30;1.00;;;;;;5058330;28;20120;-25
2022/07/18 01:27:18;;;;;;;13.35;9.52;;;14.30;1.00;;;;;;5053176;28;20467;-25
2022/07/18 01:29:45;;;;;;;10.82;8.50;;;14.30;1.00;;;;;;5053210;28;20037;-25
2022/07/18 01:32:12;;;;;;;11.10;8.57;;;14.20;1.00;;;;;;5053324;28;20129;-25
2022/07/18 01:34:38;;;;;;;13.93;8.73;;;14.20;1.00;;;;;;5053390;28;20486;-24
2022/07/18 01:37:04;;;;;;;14.80;9.55;;;14.20;1.00;;;;;;5054396;28;20048;-25
2022/07/18 01:39:31;;;;;;;13.63;9.82;;;14.20;1.00;;;;;;5052815;28;20081;-25
2022/07/18 01:41:58;;;;;;;11.88;8.95;;;14.20;1.00;;;;;;5055949;28;20044;-25
2022/07/18 01:44:25;;;;;;;10.15;9.02;;;14.20;1.00;;;;;;5053509;28;20045;-25
2022/07/18 01:46:51;;;;;;;13.85;9.98;;;14.20;1.00;;;;;;5053025;28;20052;-25
2022/07/18 01:49:17;;;;;;;13.20;9.43;;;14.20;1.00;;;;;;5051976;28;20045;-25
2022/07/18 01:51:46;;;;;;;13.80;10.32;;;14.10;1.00;;;;;;5052912;28;20092;-25
2022/07/18 01:54:12;;;;;;;12.60;9.13;;;14.10;1.00;;;;;;5052784;28;20081;-26
2022/07/18 01:56:38;;;;;;;12.60;9.32;;;14.00;1.00;;;;;;5054690;28;20041;-25
2022/07/18 01:59:04;;;;;;;12.13;9.02;;;14.00;1.00;;;;;;5052747;28;20048;-25
2022/07/18 02:01:29;;;;;;;12.75;10.07;;;14.00;1.00;;;;;;5052405;28;20048;-25
2022/07/18 02:03:55;;;;;;;13.02;9.30;;;13.90;1.00;;;;;;5050658;28;20045;-25
2022/07/18 02:06:21;;;;;;;10.63;8.23;;;14.00;1.00;;;;;;5052230;28;20045;-25
2022/07/18 02:08:47;;;;;;;13.90;8.25;;;14.00;1.00;;;;;;5056572;28;20037;-25
2022/07/18 02:11:12;;;;;;;11.73;8.32;;;14.00;1.00;;;;;;5059112;28;20499;-26
2022/07/18 02:13:38;;;;;;;13.40;8.75;;;14.00;1.00;;;;;;5056175;28;20092;-25
2022/07/18 02:16:05;;;;;;;9.45;7.72;;;14.10;1.00;;;;;;5072515;28;20044;-25
2022/07/18 02:18:32;;;;;;;13.77;8.02;;;14.00;1.00;;;;;;5057175;28;20147;-25
2022/07/18 02:21:01;;;;;;;12.35;9.43;;;14.10;1.00;;;;;;5057103;28;20511;-25
2022/07/18 02:23:27;;;;;;;11.43;8.30;;;14.10;1.00;;;;;;5056486;28;20123;-25
2022/07/18 02:25:53;;;;;;;14.32;7.97;;;14.10;1.00;;;;;;5056134;28;20045;-25
2022/07/18 02:28:19;;;;;;;12.35;8.48;;;14.10;1.00;;;;;;5057123;28;20041;-25
2022/07/18 02:30:45;;;;;;;12.88;9.10;;;14.10;1.00;;;;;;5057882;28;20041;-25
2022/07/18 02:33:11;;;;;;;9.50;8.05;;;14.10;1.00;;;;;;5056102;28;20072;-25
2022/07/18 02:35:37;;;;;;;11.40;8.07;;;14.00;99.90;;;;;;5056411;28;20076;-25
2022/07/18 02:38:02;;;;;;;11.48;8.70;;;14.00;99.90;;;;;;5056877;28;20118;-25
2022/07/18 02:40:28;;;;;;;11.15;7.88;;;14.00;99.90;;;;;;5056933;28;20061;-25
2022/07/18 02:42:54;;;;;;;12.98;8.00;;;13.90;99.90;;;;;;5059130;28;20048;-25
2022/07/18 02:45:20;;;;;;;11.73;8.15;;;13.90;99.90;;;;;;5056413;28;20049;-25
2022/07/18 02:47:45;;;;;;;13.98;7.43;;;13.90;99.90;;;;;;5057488;28;20063;-25
2022/07/18 02:50:14;;;;;;;10.57;7.40;;;13.90;99.90;;;;;;5076688;28;20393;-25
2022/07/18 02:52:41;;;;;;;16.35;10.15;;;13.90;99.90;;;;;;5063624;28;20142;-25
2022/07/18 02:55:08;;;;;;;12.93;7.63;;;13.90;99.90;;;;;;5066326;28;20044;-25
2022/07/18 02:57:35;;;;;;;12.02;8.48;;;13.90;99.90;;;;;;5060537;28;20119;-25
2022/07/18 03:00:01;;;;;;;13.18;8.68;;;13.90;99.90;;;;;;5057048;28;20056;-24
2022/07/18 03:02:27;;;;;;;15.82;9.02;;;13.90;99.90;;;;;;5057435;28;20048;-25
2022/07/18 03:04:53;;;;;;;12.32;8.35;;;13.90;99.90;;;;;;5055843;28;20049;-25
2022/07/18 03:07:18;;;;;;;12.65;8.40;;;13.90;99.90;;;;;;5056177;28;20048;-25
2022/07/18 03:09:44;;;;;;;10.68;8.30;;;13.90;99.90;;;;;;5059854;28;20055;-25
2022/07/18 03:12:10;;;;;;;12.45;9.10;;;13.90;99.90;;;;;;5055786;28;20081;-25
2022/07/18 03:14:36;;;;;;;11.45;8.02;;;13.90;99.90;;;;;;5056237;28;20041;-25
2022/07/18 03:17:01;;;;;;;12.32;8.98;;;13.90;99.90;;;;;;5056654;28;20516;-25
2022/07/18 03:19:27;;;;;;;17.63;8.60;;;13.90;99.90;;;;;;5056239;28;20124;-25
2022/07/18 03:21:53;;;;;;;13.23;8.60;;;13.90;98.10;;;;;;5056001;28;20469;-25
2022/07/18 03:24:18;;;;;;;15.10;8.23;;;13.90;80.60;;;;;;5054577;28;20037;-25
2022/07/18 03:26:44;;;;;;;14.23;8.70;;;13.90;55.80;;;;;;5055918;28;20094;-25
2022/07/18 03:29:11;;;;;;;12.50;8.93;;;13.90;32.60;;;;;;5056338;28;20083;-25
2022/07/18 03:31:37;;;;;;;11.95;9.00;;;13.90;26.90;;;;;;5053974;28;20041;-25
2022/07/18 03:34:03;;;;;;;10.50;7.70;;;13.90;2.30;;;;;;5054815;28;20059;-25
2022/07/18 03:36:28;;;;;;;11.73;9.15;;;13.90;1.00;;;;;;5055790;28;20045;-25
2022/07/18 03:38:54;;;;;;;11.35;9.07;;;13.90;1.00;;;;;;5055112;28;20045;-25
2022/07/18 03:41:20;;;;;;;13.10;8.75;;;13.80;1.00;;;;;;5055840;28;20049;-25
2022/07/18 03:43:46;;;;;;;14.23;9.20;;;13.90;1.00;;;;;;5055149;28;20048;-25
2022/07/18 03:46:11;;;;;;;13.45;9.07;;;13.80;1.00;;;;;;5054101;28;20067;-24
2022/07/18 03:48:37;;;;;;;13.10;8.60;;;13.80;1.00;;;;;;5055088;28;20062;-24
2022/07/18 03:51:03;;;;;;;10.77;8.43;;;13.80;1.00;;;;;;5039102;28;20047;-24
2022/07/18 03:53:30;;;;;;;11.38;8.13;;;13.90;1.00;;;;;;5054574;28;20053;-25
2022/07/18 03:55:56;;;;;;;12.23;8.52;;;13.90;1.00;;;;;;5054828;28;20142;-24
2022/07/18 03:58:22;;;;;;;10.63;8.15;;;13.90;1.00;;;;;;5055331;28;20088;-25
2022/07/18 04:00:48;;;;;;;10.98;7.63;;;14.00;99.90;;;;;;5057513;28;20037;-25
2022/07/18 04:03:14;;;;;;;14.13;7.90;;;14.00;99.90;;;;;;5054261;28;20518;-25
2022/07/18 04:05:39;;;;;;;12.13;7.57;;;14.00;99.90;;;;;;5054389;28;20557;-25
2022/07/18 04:08:05;;;;;;;12.00;8.07;;;14.10;99.90;;;;;;5055235;28;20037;-24
2022/07/18 04:10:31;;;;;;;11.23;7.85;;;14.10;99.90;;;;;;5054202;28;20045;-25
2022/07/18 04:12:57;;;;;;;12.55;7.68;;;14.30;99.90;;;;;;5058234;28;20048;-25
2022/07/18 04:15:24;;;;;;;9.88;7.18;;;14.30;99.90;;;;;;5053314;28;20099;-25
2022/07/18 04:17:51;;;;;;;9.07;6.70;;;14.40;99.90;;;;;;5054486;28;20132;-24
2022/07/18 04:20:18;;;;;;;11.48;7.22;;;14.50;99.90;;;;;;5053026;28;20092;-25
2022/07/18 04:23:05;;;;;;;11.20;7.65;;;14.50;99.90;;;;;;5055414;28;20120;-25
2022/07/18 04:25:36;;;;;;;11.30;7.38;;;14.60;99.90;;;;;;5054109;28;20110;-25
2022/07/18 04:28:03;;;;;;;11.95;7.53;;;14.70;99.90;;;;;;5054825;28;20091;-25
2022/07/18 04:30:29;;;;;;;13.55;7.43;;;14.70;99.90;;;;;;5053943;28;20083;-25
2022/07/18 04:32:55;;;;;;;11.27;7.40;;;14.80;99.90;;;;;;5054872;28;20036;-25
2022/07/18 04:35:22;;;;;;;14.05;7.93;;;14.90;99.90;;;;;;5068703;28;20122;-25
2022/07/18 04:37:49;;;;;;;10.55;7.22;;;15.00;99.90;;;;;;5055741;28;20124;-25
2022/07/18 04:40:18;;;;;;;11.48;6.50;;;15.00;82.50;;;;;;5053971;28;20051;-25
2022/07/18 04:42:44;;;;;;;13.25;7.10;;;15.10;27.10;;;;;;5054539;28;20049;-25
2022/07/18 04:45:10;;;;;;;8.85;7.05;;;15.20;1.00;;;;;;5055485;28;20407;-25
2022/07/18 04:47:36;;;;;;;10.27;6.70;;;15.30;1.00;;;;;;5054459;28;20041;-25
2022/07/18 04:50:03;;;;;;;8.57;6.53;;;15.40;1.00;;;;;;5053842;28;20052;-25
2022/07/18 04:52:36;;;;;;;9.75;6.45;;;15.50;1.00;;;;;;5054438;28;20491;-25
2022/07/18 04:55:02;;;;;;;;;;;15.50;1.00;;;;;;5055382;28;20048;-25
2022/07/18 04:57:28;;;;;;;12.23;7.22;;;15.50;99.90;;;;;;5053725;28;19921;-25
2022/07/18 04:59:53;;;;;;;11.52;6.47;;;15.60;1.00;;;;;;5020459;28;20449;-25
2022/07/18 05:02:19;;;;;;;8.52;5.88;;;15.70;1.00;;;;;;5053849;28;20045;-25
2022/07/18 05:04:45;;;;;;;10.82;6.50;;;15.70;1.00;;;;;;5053909;28;20095;-25
2022/07/18 05:07:10;;;;;;;8.48;6.35;;;15.70;99.90;;;;;;5056547;28;20037;-25
2022/07/18 05:09:36;;;;;;;8.73;6.25;;;15.80;99.90;;;;;;5054325;28;20167;-25
2022/07/18 05:12:02;;;;;;;8.43;5.72;;;15.80;99.90;;;;;;5054003;28;20045;-25
2022/07/18 05:14:28;;;;;;;9.23;6.28;;;15.90;99.90;;;;;;5057491;28;20045;-25
2022/07/18 05:16:54;;;;;;;10.45;5.63;;;15.90;99.90;;;;;;5053229;28;20041;-26
2022/07/18 05:19:19;;;;;;;8.35;6.00;;;16.00;99.90;;;;;;5052687;28;20055;-25
2022/07/18 05:21:45;;;;;;;10.40;6.05;;;16.00;99.90;;;;;;5053852;28;20084;-25
2022/07/18 05:24:11;;;;;;;13.95;5.80;;;16.10;99.90;;;;;;5054568;28;20049;-25
2022/07/18 05:26:37;;;;;;;10.25;5.18;;;16.20;99.90;;;;;;5053809;28;20128;-26
2022/07/18 05:29:03;;;;;;;12.98;5.63;;;16.20;99.90;;;;;;5052963;28;20131;-25
2022/07/18 05:31:29;;;;;;;12.85;5.38;;;16.30;99.90;;;;;;5052658;28;20487;-26
2022/07/18 05:33:55;;;;;;;9.45;5.13;;;16.40;99.90;;;;;;5053273;28;20099;-25
2022/07/18 05:36:20;;;;;;;10.13;5.25;;;16.40;99.90;;;;;;5061851;28;20041;-25
2022/07/18 05:38:46;;;;;;;6.78;4.57;;;16.40;99.90;;;;;;5056046;28;20419;-25
2022/07/18 05:41:12;;;;;;;8.82;4.97;;;16.50;99.90;;;;;;5054168;28;20136;-26
2022/07/18 05:43:38;;;;;;;6.22;4.47;;;16.60;34.80;;;;;;5053529;28;20049;-25
2022/07/18 05:46:04;;;;;;;6.70;4.22;;;16.60;30.90;;;;;;5063175;28;20045;-25
2022/07/18 05:48:29;;;;;;;11.07;5.15;;;16.70;1.00;;;;;;5067801;28;20036;-25
2022/07/18 05:50:55;;;;;;;9.82;4.90;;;16.80;1.00;;;;;;5053239;28;20052;-25
2022/07/18 05:53:21;;;;;;;16.90;6.70;;;16.90;1.00;;;;;;5052965;28;20048;-25
2022/07/18 05:55:46;;;;;;;14.77;5.45;;;17.00;1.00;;;;;;5053634;28;20037;-26
2022/07/18 05:58:12;;;;;;;10.73;5.22;;;17.20;1.00;;;;;;5053747;28;20459;-26
2022/07/18 06:00:38;;;;;;;14.25;5.25;;;17.40;1.00;;;;;;5053296;28;20433;-25
2022/07/18 06:03:03;;;;;;;10.68;4.20;;;17.60;1.00;;;;;;5052899;28;20049;-26
2022/07/18 06:05:29;;;;;;;8.38;3.88;;;17.80;1.00;;;;;;5052994;28;20048;-25
2022/07/18 06:07:56;;;;;;;10.40;4.22;;;18.00;99.90;;;;;;5067475;28;20045;-26
2022/07/18 06:10:23;;;;;;;12.52;4.70;;;18.20;99.90;;;;;;5062831;28;20048;-25
2022/07/18 06:12:50;;;;;;;10.05;3.88;;;18.30;99.90;;;;;;5053559;28;20049;-26
2022/07/18 06:15:16;;;;;;;9.70;4.00;;;18.40;99.90;;;;;;5053161;28;20051;-26
2022/07/18 06:17:42;;;;;;;9.95;4.10;;;18.50;99.90;;;;;;5053317;28;20475;-26
2022/07/18 06:20:08;;;;;;;11.85;4.60;;;18.80;99.90;;;;;;5052541;28;20061;-26
2022/07/18 06:22:34;;;;;;;5.63;3.25;;;19.00;99.90;;;;;;5052747;28;20115;-27
2022/07/18 06:25:01;;;;;;;6.07;3.22;;;19.20;99.90;;;;;;5055065;28;20049;-25
2022/07/18 06:27:26;;;;;;;6.75;3.58;;;19.50;20.00;;;;;;5051533;28;20143;-26
2022/07/18 06:29:52;;;;;;;9.10;3.00;;;20.10;1.00;;;;;;5059003;28;20115;-26
2022/07/18 06:32:18;;;;;;;5.00;2.67;;;20.40;1.00;;;;;;5060357;28;20059;-26
2022/07/18 06:34:44;;;;;;;5.97;3.10;;;20.50;99.90;;;;;;5054769;28;20098;-26
2022/07/18 06:37:10;;;;;;;7.03;2.60;;;20.40;99.90;;;;;;5051856;28;20049;-25
2022/07/18 06:39:35;;;;;;;3.75;2.97;;;20.50;99.90;;;;;;5051967;28;20052;-26
2022/07/18 06:42:01;;;;;;;8.32;2.90;;;20.40;14.50;;;;;;5052439;28;20052;-26
2022/07/18 06:44:27;;;;;;;4.72;3.00;;;20.20;1.00;;;;;;5054976;28;20037;-26
2022/07/18 06:46:53;;;;;;;18.98;4.55;;;20.20;1.00;;;;;;5052817;28;20052;-26
2022/07/18 06:49:19;;;;;;;8.30;3.90;;;20.80;86.10;;;;;;5058455;28;20040;-26
2022/07/18 06:51:45;;;;;;;13.07;3.75;;;21.70;1.00;;;;;;5063641;28;20049;-26
2022/07/18 06:54:10;;;;;;;5.80;2.92;;;22.40;1.00;;;;;;5064451;28;20047;-26
2022/07/18 06:56:36;;;;;;;6.13;3.00;;;23.20;99.90;;;;;;5061308;28;20048;-26
2022/07/18 06:59:02;;;;;;;7.75;2.90;;;23.40;1.00;;;;;;5062026;28;20075;-26
2022/07/18 07:01:28;;;;;;;7.07;2.95;;;22.90;99.90;;;;;;5062472;28;20154;-26
2022/07/18 07:03:54;;;;;;;6.13;2.85;;;22.60;99.90;;;;;;5075905;28;20077;-26
2022/07/18 07:06:20;;;;;;;7.30;2.75;;;22.50;99.90;;;;;;5065647;28;20137;-26
2022/07/18 07:08:46;;;;;;;6.80;2.90;;;22.30;99.90;;;;;;5055210;28;20045;-26
2022/07/18 07:11:11;;;;;;;11.50;2.60;;;21.90;99.90;;;;;;5055986;28;20049;-26
2022/07/18 07:13:37;;;;;;;5.72;2.30;;;21.70;99.90;;;;;;5056256;28;20049;-26
2022/07/18 07:16:03;;;;;;;10.00;3.17;;;21.80;99.90;;;;;;5057102;28;20059;-26
2022/07/18 07:18:29;;;;;;;5.35;2.63;;;22.00;99.90;;;;;;5055711;28;20056;-26
2022/07/18 07:20:55;;;;;;;6.13;2.22;;;22.00;99.90;;;;;;5055779;28;20132;-26
2022/07/18 07:23:20;;;;;;;10.57;3.30;;;22.30;99.90;;;;;;5056022;28;20633;-25
2022/07/18 07:25:46;;;;;;;10.18;2.53;;;22.90;99.90;;;;;;5056096;28;20044;-26
2022/07/18 07:28:12;;;;;;;6.13;2.25;;;23.30;90.20;;;;;;5056035;28;20048;-27
2022/07/18 07:30:37;;;;;;;5.60;2.60;;;23.90;1.00;;;;;;5056521;28;20372;-26
2022/07/18 07:33:03;;;;;;;6.00;2.38;;;24.10;1.00;;;;;;5055952;28;20048;-26
2022/07/18 07:35:29;;;;;;;3.72;2.00;;;24.00;1.00;;;;;;5055880;28;20564;-26
2022/07/18 07:37:57;;;;;;;5.45;2.40;;;24.10;1.00;;;;;;5063743;28;20045;-26
2022/07/18 07:40:24;;;;;;;7.13;2.47;;;24.10;1.00;;;;;;5071027;28;20048;-26
2022/07/18 07:42:51;;;;;;;4.88;2.40;;;23.90;1.00;;;;;;5066776;28;20441;-26
2022/07/18 07:45:17;;;;;;;6.60;2.45;;;23.50;1.00;;;;;;5074770;28;20049;-26
2022/07/18 07:47:43;;;;;;;4.00;2.30;;;23.30;1.00;;;;;;5057256;28;20045;-26
2022/07/18 07:50:10;;;;;;;4.60;1.95;;;23.10;2.40;;;;;;5056173;28;20060;-26
2022/07/18 07:52:37;;;;;;;5.32;1.88;;;23.30;1.00;;;;;;5055521;28;20521;-26
2022/07/18 07:55:04;;;;;;;4.78;1.98;;;23.60;1.00;;;;;;5055871;28;20124;-26
2022/07/18 07:57:30;;;;;;;3.95;1.98;;;23.80;1.00;;;;;;5055323;28;20059;-26
2022/07/18 07:59:56;;;;;;;7.00;1.85;;;24.00;1.00;;;;;;5053951;28;20048;-26
2022/07/18 08:02:22;;;;;;;4.38;1.60;;;24.10;1.00;;;;;;5055394;28;20054;-26
2022/07/18 08:04:49;;;;;;;2.65;1.25;;;24.10;1.00;;;;;;5055556;28;20049;-27
2022/07/18 08:07:16;;;;;;;5.72;1.70;;;24.10;16.50;;;;;;5054131;28;20098;-26
2022/07/18 08:09:41;;;;;;;6.75;2.00;;;24.10;1.00;;;;;;5055220;28;20037;-26
2022/07/18 08:12:07;;;;;;;5.15;2.30;;;24.30;1.00;;;;;;5059628;28;20601;-26
2022/07/18 08:14:35;;;;;;;8.15;2.00;;;24.70;1.00;;;;;;5054512;28;20032;-29
2022/07/18 08:17:00;;;;;;;5.07;1.67;;;25.40;1.00;;;;;;5037108;28;20048;-27
2022/07/18 08:19:26;;;;;;;4.55;1.90;;;25.90;1.00;;;;;;5037015;28;20543;-28
2022/07/18 08:21:52;;;;;;;2.60;1.30;;;26.00;1.00;;;;;;5060840;28;20056;-26
2022/07/18 08:24:17;;;;;;;5.05;2.03;;;25.80;99.90;;;;;;5063679;28;20398;-26
2022/07/18 08:26:43;;;;;;;3.53;1.33;;;26.40;99.90;;;;;;5056322;28;20040;-26
2022/07/18 08:29:09;;;;;;;3.60;1.50;;;26.70;99.90;;;;;;5054463;28;20074;-26
2022/07/18 08:31:36;;;;;;;6.05;1.42;;;26.60;99.90;;;;;;5061242;28;20127;-27
2022/07/18 08:34:02;;;;;;;4.97;1.60;;;26.60;99.90;;;;;;5056206;28;20052;-26
2022/07/18 08:36:28;;;;;;;3.38;1.13;;;26.40;99.90;;;;;;5056737;28;20056;-26
2022/07/18 08:38:54;;;;;;;2.83;1.50;;;26.30;99.90;;;;;;5054819;28;20040;-27
2022/07/18 08:41:22;;;;;;;4.38;1.27;;;25.70;99.90;;;;;;5062017;28;20076;-26
2022/07/18 08:43:49;;;;;;;7.38;1.40;;;25.50;99.90;;;;;;5057847;28;20141;-28
2022/07/18 08:46:19;;;;;;;2.80;1.30;;;25.30;54.00;;;;;;5056544;28;20037;-26
2022/07/18 08:48:45;;;;;;;4.60;1.60;;;25.20;99.90;;;;;;5052319;28;20059;-27
2022/07/18 08:51:12;;;;;;;5.38;1.63;;;25.20;69.30;;;;;;5061107;28;20036;-26
2022/07/18 08:53:38;;;;;;;4.45;1.30;;;25.00;42.90;;;;;;5057071;28;20402;-27
2022/07/18 08:56:05;;;;;;;6.40;1.45;;;24.90;99.90;;;;;;5053751;28;20048;-27
2022/07/18 08:58:31;;;;;;;5.50;1.38;;;25.00;64.70;;;;;;5060033;28;20052;-26
2022/07/18 09:01:00;;;;;;;6.45;1.38;;;25.00;99.90;;;;;;5069338;28;20040;-26
2022/07/18 09:03:26;;;;;;;5.70;1.30;;;25.20;4.50;;;;;;5067511;28;20052;-27
2022/07/18 09:06:08;;;;;;;4.68;1.80;;;25.50;1.00;;;;;;5067047;28;20053;-26
2022/07/18 09:08:35;;;;;;;5.13;1.23;;;25.90;29.40;;;;;;5063155;28;20052;-26
2022/07/18 09:11:03;;;;;;;5.22;1.35;;;25.90;39.40;;;;;;5053490;28;20063;-27
2022/07/18 09:13:36;;;;;;;2.90;1.10;;;26.10;97.80;;;;;;5054462;28;20056;-26
2022/07/18 09:16:08;;;;;;;7.07;1.27;;;26.20;40.90;;;;;;5053640;28;20052;-26
2022/07/18 09:18:37;;;;;;;4.20;1.48;;;26.30;35.60;;;;;;5053173;28;20771;-27
2022/07/18 09:21:12;;;;;;;4.55;1.45;;;26.50;8.50;;;;;;5056364;28;20060;-27
2022/07/18 09:23:43;;;;;;;4.50;1.65;;;27.00;67.60;;;;;;5054123;28;20037;-26
2022/07/18 09:26:10;;;;;;;2.83;1.13;;;27.10;99.90;;;;;;5058762;28;20044;-27
2022/07/18 09:28:51;;;;;;;6.65;1.30;;;27.00;99.90;;;;;;5060178;28;20042;-26
2022/07/18 09:31:22;;;;;;;5.15;1.50;;;27.30;99.90;;;;;;5067714;28;20475;-26
2022/07/18 09:33:56;;;;;;;9.50;1.90;;;27.60;99.90;;;;;;5067740;28;20048;-26
2022/07/18 09:36:22;;;;;;;7.20;1.38;;;27.90;99.90;;;;;;5060186;28;20040;-26
2022/07/18 09:38:48;;;;;;;6.90;1.70;;;27.80;99.90;;;;;;5057115;28;20610;-26
2022/07/18 09:41:13;;;;;;;4.55;1.38;;;27.80;99.90;;;;;;5056832;28;20127;-27
2022/07/18 09:43:39;;;;;;;8.88;2.22;;;27.90;99.90;;;;;;5056786;28;20033;-28
2022/07/18 09:46:07;;;;;;;6.10;1.48;;;28.00;99.90;;;;;;5061205;28;20048;-27
2022/07/18 09:48:33;;;;;;;6.57;1.63;;;28.20;99.90;;;;;;5054884;28;20037;-27
2022/07/18 09:51:04;;;;;;;3.20;1.20;;;27.90;99.90;;;;;;5061047;28;20051;-26
2022/07/18 09:53:41;;;;;;;6.40;1.93;;;27.80;99.90;;;;;;5054595;28;20502;-29
2022/07/18 09:56:12;;;;;;;5.47;1.60;;;27.90;99.90;;;;;;5057735;28;20052;-27
2022/07/18 09:58:51;;;;;;;2.90;1.60;;;28.00;99.90;;;;;;5059133;28;20067;-29
2022/07/18 10:01:16;;;;;;;6.07;1.63;;;28.20;83.40;;;;;;5064866;28;20055;-27
2022/07/18 10:03:42;;;;;;;4.32;1.60;;;28.20;99.90;;;;;;5053989;28;20041;-26
2022/07/18 10:06:08;;;;;;;3.58;1.70;;;28.20;99.90;;;;;;5057647;28;20616;-28
2022/07/18 10:08:35;;;;;;;3.78;1.50;;;28.40;99.90;;;;;;5056179;28;20041;-27
2022/07/18 10:11:04;;;;;;;4.32;1.90;;;28.50;99.90;;;;;;5056149;28;20049;-26
2022/07/18 10:13:31;;;;;;;2.97;1.38;;;28.60;99.90;;;;;;5058391;28;20040;-26
2022/07/18 10:15:57;;;;;;;4.13;1.90;;;28.60;99.90;;;;;;5060141;28;20041;-26
2022/07/18 10:18:26;;;;;;;3.90;1.40;;;28.60;99.90;;;;;;5061459;28;20118;-27
2022/07/18 10:21:08;;;;;;;3.80;1.92;;;28.80;99.90;;;;;;5056173;28;20157;-26
2022/07/18 10:23:54;;;;;;;7.82;2.10;;;28.90;99.90;;;;;;5052613;28;20080;-27
2022/07/18 10:26:22;;;;;;;6.45;2.28;;;29.10;99.90;;;;;;5052981;28;20044;-27
2022/07/18 10:28:59;;;;;;;3.78;1.98;;;29.00;99.90;;;;;;5043567;28;20055;-26
2022/07/18 10:31:32;;;;;;;4.13;2.30;;;29.10;51.60;;;;;;5060821;28;20143;-26
2022/07/18 10:34:07;;;;;;;4.03;2.05;;;29.00;45.70;;;;;;5058283;28;20809;-26
2022/07/18 10:36:38;;;;;;;3.83;1.75;;;29.20;28.00;;;;;;5064814;28;20041;-27
2022/07/18 10:39:25;;;;;;;5.20;2.35;;;29.80;76.20;;;;;;5043780;28;20398;-26
2022/07/18 10:41:54;;;;;;;4.80;2.05;;;30.30;32.60;;;;;;5057896;28;20040;-27
2022/07/18 10:44:31;;;;;;;6.28;2.40;;;30.30;9.20;;;;;;5063012;28;20190;-27
2022/07/18 10:47:03;;;;;;;5.60;2.33;;;30.60;49.10;;;;;;5063001;28;20044;-27
2022/07/18 10:49:50;;;;;;;4.30;2.25;;;30.80;55.40;;;;;;5064249;28;20047;-27
2022/07/18 10:52:25;;;;;;;11.32;3.42;;;30.40;1.00;;;;;;5061088;28;20052;-27
2022/07/18 10:55:02;;;;;;;5.43;2.20;;;30.30;1.00;;;;;;5065096;28;20093;-26
2022/07/18 10:57:35;;;;;;;7.18;2.78;;;30.30;56.20;;;;;;5066274;28;20048;-27
2022/07/18 11:00:10;;;;;;;5.45;2.65;;;30.80;99.90;;;;;;5063499;28;20103;-27
2022/07/18 11:02:47;;;;;;;4.13;2.67;;;31.10;94.50;;;;;;5058510;28;20041;-27
2022/07/18 11:05:24;;;;;;;5.05;2.80;;;31.30;21.00;;;;;;5070739;28;20049;-29
2022/07/18 11:08:02;;;;;;;6.13;2.47;;;31.40;99.90;;;;;;5065065;28;20498;-27
2022/07/18 11:10:44;;;;;;;6.30;2.42;;;31.40;83.30;;;;;;5059984;28;20037;-27
2022/07/18 11:13:25;;;;;;;4.13;2.28;;;31.50;99.90;;;;;;5062335;28;20041;-27
2022/07/18 11:16:11;;;;;;;6.82;2.95;;;31.30;99.90;;;;;;5058253;28;20054;-28
2022/07/18 11:18:39;;;;;;;4.00;2.90;;;31.50;99.90;;;;;;5056172;28;20040;-27
2022/07/18 11:21:18;;;;;;;4.35;2.70;;;31.40;94.20;;;;;;5052829;28;20056;-28
2022/07/18 11:23:46;;;;;;;7.07;2.53;;;31.60;79.00;;;;;;5058217;28;20053;-27
2022/07/18 11:26:16;;;;;;;4.20;2.35;;;31.40;79.10;;;;;;5060066;28;20053;-28
2022/07/18 11:28:42;;;;;;;3.78;2.35;;;31.70;95.50;;;;;;5057826;28;20048;-27
2022/07/18 11:31:11;;;;;;;8.85;3.13;;;32.10;90.30;;;;;;5061405;28;20044;-27
2022/07/18 11:33:39;;;;;;;4.68;2.53;;;32.40;99.90;;;;;;5060346;28;20499;-28
2022/07/18 11:36:15;;;;;;;5.90;2.65;;;32.80;99.90;;;;;;5059964;28;20049;-27
2022/07/18 11:38:51;;;;;;;4.93;2.38;;;32.90;99.90;;;;;;5062138;28;20106;-27
2022/07/18 11:41:17;;;;;;;4.43;2.95;;;32.60;99.90;;;;;;5063192;28;20116;-27
2022/07/18 11:43:44;;;;;;;4.50;2.05;;;32.30;99.90;;;;;;5064148;28;20045;-27
2022/07/18 11:46:13;;;;;;;6.50;2.78;;;32.30;99.90;;;;;;5061929;28;20057;-27
2022/07/18 11:48:40;;;;;;;4.50;2.17;;;32.40;99.90;;;;;;5064474;28;20072;-28
2022/07/18 11:51:16;;;;;;;3.90;2.30;;;32.40;99.90;;;;;;5059470;28;20067;-27
2022/07/18 11:53:44;;;;;;;6.55;2.90;;;32.40;99.90;;;;;;5074695;28;20048;-28
2022/07/18 11:56:10;;;;;;;5.35;2.83;;;32.70;99.90;;;;;;5067581;28;20056;-27
2022/07/18 11:58:38;;;;;;;4.90;2.72;;;33.30;99.90;;;;;;5061960;28;20041;-27
2022/07/18 12:01:04;;;;;;;4.53;2.72;;;33.20;99.90;;;;;;5075440;28;20470;-27
2022/07/18 12:03:33;;;;;;;8.82;3.10;;;32.50;93.70;;;;;;5069823;28;20048;-27
2022/07/18 12:06:08;;;;;;;7.10;2.90;;;32.10;99.70;;;;;;5059263;28;20525;-28
2022/07/18 12:09:03;;;;;;;5.40;2.97;;;32.10;82.70;;;;;;5060743;28;20102;-28
2022/07/18 12:11:39;;;;;;;4.18;2.30;;;32.20;99.90;;;;;;5061265;28;20044;-28
2022/07/18 12:14:08;;;;;;;6.70;2.58;;;32.50;99.90;;;;;;5058418;28;20489;-28
2022/07/18 12:16:46;;;;;;;5.20;2.45;;;32.50;99.90;;;;;;5066706;28;20045;-28
2022/07/18 12:19:17;;;;;;;4.28;2.88;;;32.80;99.90;;;;;;5057524;28;20068;-28
2022/07/18 12:21:45;;;;;;;3.92;2.40;;;33.10;99.90;;;;;;5058411;28;20056;-28
2022/07/18 12:24:26;;;;;;;4.45;2.65;;;32.60;99.90;;;;;;5068896;28;20106;-28
2022/07/18 12:27:16;;;;;;;4.43;2.55;;;32.40;99.90;;;;;;5068576;28;20041;-28
2022/07/18 12:30:12;;;;;;;5.22;2.50;;;32.00;99.90;;;;;;5056290;28;20041;-28
2022/07/18 12:32:52;;;;;;;6.30;2.60;;;31.70;99.90;;;;;;5054887;28;20490;-28
2022/07/18 12:35:25;;;;;;;4.03;2.50;;;31.90;99.90;;;;;;5070516;28;20068;-30
2022/07/18 12:38:10;;;;;;;4.22;2.28;;;32.00;99.90;;;;;;5068273;28;20079;-28
2022/07/18 12:40:59;;;;;;;4.63;2.85;;;32.00;99.90;;;;;;5071126;28;20063;-28
2022/07/18 12:43:28;;;;;;;5.45;3.03;;;31.60;99.90;;;;;;5073674;28;20482;-28
2022/07/18 12:45:56;;;;;;;4.85;2.90;;;31.30;99.90;;;;;;5074534;28;20049;-28
2022/07/18 12:48:22;;;;;;;6.55;2.95;;;30.60;99.90;;;;;;5063677;28;20072;-28
2022/07/18 12:50:57;;;;;;;5.85;2.75;;;30.00;99.90;;;;;;5053984;28;20079;-28
2022/07/18 12:53:23;;;;;;;6.43;3.08;;;30.00;96.50;;;;;;5055733;28;20183;-28